sensor_id;sensor_type;location;lat;lon;timestamp;temperature;humidity
75430;DHT22;64127;51.488;5.462;2022-10-16T00:01:34;16.60;98.40
75430;DHT22;64127;51.488;5.462;2022-10-16T00:04:06;16.60;98.40
75430;DHT22;64127;51.488;5.462;2022-10-16T00:06:40;16.60;98.40
75430;DHT22;64127;51.488;5.462;2022-10-16T00:09:11;16.60;98.40
75430;DHT22;64127;51.488;5.462;2022-10-16T00:11:43;16.60;98.40
75430;DHT22;64127;51.488;5.462;2022-10-16T00:14:16;16.60;98.50
75430;DHT22;64127;51.488;5.462;2022-10-16T00:16:48;16.60;98.60
75430;DHT22;64127;51.488;5.462;2022-10-16T00:19:19;16.60;98.60
75430;DHT22;64127;51.488;5.462;2022-10-16T00:21:51;16.60;98.60
75430;DHT22;64127;51.488;5.462;2022-10-16T00:24:23;16.50;98.50
75430;DHT22;64127;51.488;5.462;2022-10-16T00:26:55;16.60;98.60
75430;DHT22;64127;51.488;5.462;2022-10-16T00:29:27;16.60;98.60
75430;DHT22;64127;51.488;5.462;2022-10-16T00:31:59;16.60;98.50
75430;DHT22;64127;51.488;5.462;2022-10-16T00:34:31;16.60;98.50
75430;DHT22;64127;51.488;5.462;2022-10-16T00:37:03;16.60;98.50
75430;DHT22;64127;51.488;5.462;2022-10-16T00:39:35;16.60;98.60
75430;DHT22;64127;51.488;5.462;2022-10-16T00:42:14;16.60;98.60
75430;DHT22;64127;51.488;5.462;2022-10-16T00:44:54;16.50;98.60
75430;DHT22;64127;51.488;5.462;2022-10-16T00:47:34;16.50;98.70
75430;DHT22;64127;51.488;5.462;2022-10-16T00:50:33;16.50;98.70
75430;DHT22;64127;51.488;5.462;2022-10-16T00:53:05;16.50;98.70
75430;DHT22;64127;51.488;5.462;2022-10-16T00:55:38;16.50;98.70
75430;DHT22;64127;51.488;5.462;2022-10-16T00:58:13;16.50;98.80
75430;DHT22;64127;51.488;5.462;2022-10-16T01:00:45;16.40;98.80
75430;DHT22;64127;51.488;5.462;2022-10-16T01:03:29;16.40;98.80
75430;DHT22;64127;51.488;5.462;2022-10-16T01:09:37;16.40;98.90
75430;DHT22;64127;51.488;5.462;2022-10-16T01:22:01;16.30;98.90
75430;DHT22;64127;51.488;5.462;2022-10-16T01:24:40;16.30;98.90
75430;DHT22;64127;51.488;5.462;2022-10-16T01:27:23;16.30;99.00
75430;DHT22;64127;51.488;5.462;2022-10-16T01:30:04;16.30;99.00
75430;DHT22;64127;51.488;5.462;2022-10-16T01:32:57;16.30;99.10
75430;DHT22;64127;51.488;5.462;2022-10-16T01:35:41;16.30;99.10
75430;DHT22;64127;51.488;5.462;2022-10-16T01:38:30;16.20;99.10
75430;DHT22;64127;51.488;5.462;2022-10-16T01:41:20;16.20;99.10
75430;DHT22;64127;51.488;5.462;2022-10-16T01:44:11;16.30;99.20
75430;DHT22;64127;51.488;5.462;2022-10-16T01:46:50;16.30;99.10
75430;DHT22;64127;51.488;5.462;2022-10-16T01:49:26;16.20;99.10
75430;DHT22;64127;51.488;5.462;2022-10-16T01:52:06;16.20;99.10
75430;DHT22;64127;51.488;5.462;2022-10-16T01:54:44;16.30;99.20
75430;DHT22;64127;51.488;5.462;2022-10-16T01:57:20;16.30;99.20
75430;DHT22;64127;51.488;5.462;2022-10-16T01:59:55;16.30;99.20
75430;DHT22;64127;51.488;5.462;2022-10-16T02:02:30;16.20;99.20
75430;DHT22;64127;51.488;5.462;2022-10-16T02:05:22;16.20;99.20
75430;DHT22;64127;51.488;5.462;2022-10-16T02:08:04;16.20;99.30
75430;DHT22;64127;51.488;5.462;2022-10-16T02:10:37;16.20;99.20
75430;DHT22;64127;51.488;5.462;2022-10-16T02:13:13;16.20;99.20
75430;DHT22;64127;51.488;5.462;2022-10-16T02:15:51;16.20;99.20
75430;DHT22;64127;51.488;5.462;2022-10-16T02:18:23;16.20;99.20
75430;DHT22;64127;51.488;5.462;2022-10-16T02:21:22;16.20;99.20
75430;DHT22;64127;51.488;5.462;2022-10-16T02:27:12;16.20;99.30
75430;DHT22;64127;51.488;5.462;2022-10-16T02:29:58;16.20;99.30
75430;DHT22;64127;51.488;5.462;2022-10-16T02:32:48;16.10;99.30
75430;DHT22;64127;51.488;5.462;2022-10-16T02:35:23;16.10;99.30
75430;DHT22;64127;51.488;5.462;2022-10-16T02:37:56;16.10;99.30
75430;DHT22;64127;51.488;5.462;2022-10-16T02:40:29;16.10;99.30
75430;DHT22;64127;51.488;5.462;2022-10-16T02:43:03;16.10;99.30
75430;DHT22;64127;51.488;5.462;2022-10-16T02:45:37;16.10;99.30
75430;DHT22;64127;51.488;5.462;2022-10-16T02:48:09;16.00;99.30
75430;DHT22;64127;51.488;5.462;2022-10-16T02:50:41;16.00;99.20
75430;DHT22;64127;51.488;5.462;2022-10-16T02:53:13;16.00;99.20
75430;DHT22;64127;51.488;5.462;2022-10-16T02:55:44;16.00;99.20
75430;DHT22;64127;51.488;5.462;2022-10-16T02:58:16;16.00;99.30
75430;DHT22;64127;51.488;5.462;2022-10-16T03:00:48;15.90;99.20
75430;DHT22;64127;51.488;5.462;2022-10-16T03:03:21;16.00;99.20
75430;DHT22;64127;51.488;5.462;2022-10-16T03:05:53;16.00;99.20
75430;DHT22;64127;51.488;5.462;2022-10-16T03:08:24;15.90;99.20
75430;DHT22;64127;51.488;5.462;2022-10-16T03:10:56;15.90;99.20
75430;DHT22;64127;51.488;5.462;2022-10-16T03:13:28;15.90;99.20
75430;DHT22;64127;51.488;5.462;2022-10-16T03:16:00;15.90;99.20
75430;DHT22;64127;51.488;5.462;2022-10-16T03:18:32;15.90;99.30
75430;DHT22;64127;51.488;5.462;2022-10-16T03:21:04;15.90;99.30
75430;DHT22;64127;51.488;5.462;2022-10-16T03:23:36;15.90;99.30
75430;DHT22;64127;51.488;5.462;2022-10-16T03:26:08;15.90;99.30
75430;DHT22;64127;51.488;5.462;2022-10-16T03:28:40;15.90;99.30
75430;DHT22;64127;51.488;5.462;2022-10-16T03:31:12;15.90;99.30
75430;DHT22;64127;51.488;5.462;2022-10-16T03:33:44;15.90;99.30
75430;DHT22;64127;51.488;5.462;2022-10-16T03:36:16;15.90;99.40
75430;DHT22;64127;51.488;5.462;2022-10-16T03:38:48;15.80;99.40
75430;DHT22;64127;51.488;5.462;2022-10-16T03:41:20;15.80;99.50
75430;DHT22;64127;51.488;5.462;2022-10-16T03:43:52;15.80;99.60
75430;DHT22;64127;51.488;5.462;2022-10-16T03:46:24;15.80;99.60
75430;DHT22;64127;51.488;5.462;2022-10-16T03:48:56;15.80;99.70
75430;DHT22;64127;51.488;5.462;2022-10-16T03:51:28;15.70;99.70
75430;DHT22;64127;51.488;5.462;2022-10-16T03:54:00;15.70;99.70
75430;DHT22;64127;51.488;5.462;2022-10-16T03:56:31;15.70;99.70
75430;DHT22;64127;51.488;5.462;2022-10-16T03:59:04;15.70;99.80
75430;DHT22;64127;51.488;5.462;2022-10-16T04:01:35;15.80;99.80
75430;DHT22;64127;51.488;5.462;2022-10-16T04:04:07;15.70;99.80
75430;DHT22;64127;51.488;5.462;2022-10-16T04:06:40;15.70;99.90
75430;DHT22;64127;51.488;5.462;2022-10-16T04:09:12;15.70;99.90
75430;DHT22;64127;51.488;5.462;2022-10-16T04:11:44;15.70;99.90
75430;DHT22;64127;51.488;5.462;2022-10-16T04:14:16;15.70;99.90
75430;DHT22;64127;51.488;5.462;2022-10-16T04:16:47;15.70;99.90
75430;DHT22;64127;51.488;5.462;2022-10-16T04:19:19;15.70;99.90
75430;DHT22;64127;51.488;5.462;2022-10-16T04:21:51;15.60;99.90
75430;DHT22;64127;51.488;5.462;2022-10-16T04:24:23;15.60;99.90
75430;DHT22;64127;51.488;5.462;2022-10-16T04:26:55;15.60;99.90
75430;DHT22;64127;51.488;5.462;2022-10-16T04:29:27;15.60;99.90
75430;DHT22;64127;51.488;5.462;2022-10-16T04:31:59;15.60;99.90
75430;DHT22;64127;51.488;5.462;2022-10-16T04:34:31;15.60;99.90
75430;DHT22;64127;51.488;5.462;2022-10-16T04:37:03;15.60;99.90
75430;DHT22;64127;51.488;5.462;2022-10-16T04:39:35;15.60;99.90
75430;DHT22;64127;51.488;5.462;2022-10-16T04:42:07;15.70;99.90
75430;DHT22;64127;51.488;5.462;2022-10-16T04:44:39;15.70;99.90
75430;DHT22;64127;51.488;5.462;2022-10-16T04:47:12;15.60;99.90
75430;DHT22;64127;51.488;5.462;2022-10-16T04:49:44;15.70;99.90
75430;DHT22;64127;51.488;5.462;2022-10-16T04:52:16;15.70;99.90
75430;DHT22;64127;51.488;5.462;2022-10-16T04:54:50;15.60;99.90
75430;DHT22;64127;51.488;5.462;2022-10-16T04:57:22;15.60;99.90
75430;DHT22;64127;51.488;5.462;2022-10-16T04:59:55;15.70;99.90
75430;DHT22;64127;51.488;5.462;2022-10-16T05:02:27;15.60;99.90
75430;DHT22;64127;51.488;5.462;2022-10-16T05:04:59;15.60;99.90
75430;DHT22;64127;51.488;5.462;2022-10-16T05:07:31;15.60;99.90
75430;DHT22;64127;51.488;5.462;2022-10-16T05:10:03;15.70;99.90
75430;DHT22;64127;51.488;5.462;2022-10-16T05:12:35;15.70;99.90
75430;DHT22;64127;51.488;5.462;2022-10-16T05:15:08;15.70;99.90
75430;DHT22;64127;51.488;5.462;2022-10-16T05:17:40;15.70;99.90
75430;DHT22;64127;51.488;5.462;2022-10-16T05:20:15;15.70;99.90
75430;DHT22;64127;51.488;5.462;2022-10-16T05:22:47;15.70;99.90
75430;DHT22;64127;51.488;5.462;2022-10-16T05:25:19;15.70;99.90
75430;DHT22;64127;51.488;5.462;2022-10-16T05:27:51;15.70;99.90
75430;DHT22;64127;51.488;5.462;2022-10-16T05:30:23;15.70;99.90
75430;DHT22;64127;51.488;5.462;2022-10-16T05:32:55;15.60;99.90
75430;DHT22;64127;51.488;5.462;2022-10-16T05:35:27;15.70;99.90
75430;DHT22;64127;51.488;5.462;2022-10-16T05:37:59;15.60;99.90
75430;DHT22;64127;51.488;5.462;2022-10-16T05:40:31;15.70;99.90
75430;DHT22;64127;51.488;5.462;2022-10-16T05:43:03;15.60;99.90
75430;DHT22;64127;51.488;5.462;2022-10-16T05:45:35;15.60;99.90
75430;DHT22;64127;51.488;5.462;2022-10-16T05:48:07;15.60;99.90
75430;DHT22;64127;51.488;5.462;2022-10-16T05:50:39;15.60;99.90
75430;DHT22;64127;51.488;5.462;2022-10-16T05:53:11;15.60;99.90
75430;DHT22;64127;51.488;5.462;2022-10-16T05:55:43;15.60;99.90
75430;DHT22;64127;51.488;5.462;2022-10-16T05:58:14;15.60;99.90
75430;DHT22;64127;51.488;5.462;2022-10-16T06:00:57;15.60;99.90
75430;DHT22;64127;51.488;5.462;2022-10-16T06:03:33;15.60;99.90
75430;DHT22;64127;51.488;5.462;2022-10-16T06:06:17;15.50;99.90
75430;DHT22;64127;51.488;5.462;2022-10-16T06:08:55;15.50;99.90
75430;DHT22;64127;51.488;5.462;2022-10-16T06:11:30;15.50;99.90
75430;DHT22;64127;51.488;5.462;2022-10-16T06:14:03;15.50;99.90
75430;DHT22;64127;51.488;5.462;2022-10-16T06:16:38;15.50;99.90
75430;DHT22;64127;51.488;5.462;2022-10-16T06:19:10;15.50;99.90
75430;DHT22;64127;51.488;5.462;2022-10-16T06:21:42;15.50;99.90
75430;DHT22;64127;51.488;5.462;2022-10-16T06:24:14;15.50;99.90
75430;DHT22;64127;51.488;5.462;2022-10-16T06:26:46;15.50;99.90
75430;DHT22;64127;51.488;5.462;2022-10-16T06:29:18;15.50;99.90
75430;DHT22;64127;51.488;5.462;2022-10-16T06:31:50;15.60;99.90
75430;DHT22;64127;51.488;5.462;2022-10-16T06:34:22;15.60;99.90
75430;DHT22;64127;51.488;5.462;2022-10-16T06:36:54;15.50;99.90
75430;DHT22;64127;51.488;5.462;2022-10-16T06:39:26;15.60;99.90
75430;DHT22;64127;51.488;5.462;2022-10-16T06:41:58;15.60;99.90
75430;DHT22;64127;51.488;5.462;2022-10-16T06:44:35;15.60;99.90
75430;DHT22;64127;51.488;5.462;2022-10-16T06:47:07;15.60;99.90
75430;DHT22;64127;51.488;5.462;2022-10-16T06:49:39;15.60;99.90
75430;DHT22;64127;51.488;5.462;2022-10-16T06:52:11;15.60;99.90
75430;DHT22;64127;51.488;5.462;2022-10-16T06:54:43;15.60;99.90
75430;DHT22;64127;51.488;5.462;2022-10-16T06:57:15;15.60;99.90
75430;DHT22;64127;51.488;5.462;2022-10-16T06:59:47;15.60;99.90
75430;DHT22;64127;51.488;5.462;2022-10-16T07:02:25;15.60;99.90
75430;DHT22;64127;51.488;5.462;2022-10-16T07:04:57;15.70;99.90
75430;DHT22;64127;51.488;5.462;2022-10-16T07:07:29;15.70;99.90
75430;DHT22;64127;51.488;5.462;2022-10-16T07:10:01;15.70;99.90
75430;DHT22;64127;51.488;5.462;2022-10-16T07:12:33;15.70;99.90
75430;DHT22;64127;51.488;5.462;2022-10-16T07:15:06;15.70;99.90
75430;DHT22;64127;51.488;5.462;2022-10-16T07:17:38;15.70;99.90
75430;DHT22;64127;51.488;5.462;2022-10-16T07:20:10;15.70;99.90
75430;DHT22;64127;51.488;5.462;2022-10-16T07:22:42;15.80;99.90
75430;DHT22;64127;51.488;5.462;2022-10-16T07:25:14;15.80;99.90
75430;DHT22;64127;51.488;5.462;2022-10-16T07:27:46;15.90;99.90
75430;DHT22;64127;51.488;5.462;2022-10-16T07:30:18;15.90;99.90
75430;DHT22;64127;51.488;5.462;2022-10-16T07:32:50;16.00;99.90
75430;DHT22;64127;51.488;5.462;2022-10-16T07:35:22;16.10;99.90
75430;DHT22;64127;51.488;5.462;2022-10-16T07:37:54;16.20;99.90
75430;DHT22;64127;51.488;5.462;2022-10-16T07:40:26;16.40;99.90
75430;DHT22;64127;51.488;5.462;2022-10-16T07:42:58;16.50;99.90
75430;DHT22;64127;51.488;5.462;2022-10-16T07:45:30;16.70;99.90
75430;DHT22;64127;51.488;5.462;2022-10-16T07:48:02;16.80;99.90
75430;DHT22;64127;51.488;5.462;2022-10-16T07:50:34;16.90;99.90
75430;DHT22;64127;51.488;5.462;2022-10-16T07:53:06;17.00;99.90
75430;DHT22;64127;51.488;5.462;2022-10-16T07:55:39;17.10;99.90
75430;DHT22;64127;51.488;5.462;2022-10-16T07:58:11;17.20;99.90
75430;DHT22;64127;51.488;5.462;2022-10-16T08:00:43;17.30;99.90
75430;DHT22;64127;51.488;5.462;2022-10-16T08:03:15;17.40;99.90
75430;DHT22;64127;51.488;5.462;2022-10-16T08:05:47;17.40;99.90
75430;DHT22;64127;51.488;5.462;2022-10-16T08:08:19;17.50;99.90
75430;DHT22;64127;51.488;5.462;2022-10-16T08:10:51;17.60;99.90
75430;DHT22;64127;51.488;5.462;2022-10-16T08:13:23;17.60;99.90
75430;DHT22;64127;51.488;5.462;2022-10-16T08:15:55;17.60;99.90
75430;DHT22;64127;51.488;5.462;2022-10-16T08:18:27;17.70;99.90
75430;DHT22;64127;51.488;5.462;2022-10-16T08:20:59;17.80;99.90
75430;DHT22;64127;51.488;5.462;2022-10-16T08:23:32;17.80;99.90
75430;DHT22;64127;51.488;5.462;2022-10-16T08:26:07;17.90;99.90
75430;DHT22;64127;51.488;5.462;2022-10-16T08:28:39;17.90;99.90
75430;DHT22;64127;51.488;5.462;2022-10-16T08:31:13;17.90;99.90
75430;DHT22;64127;51.488;5.462;2022-10-16T08:33:47;18.00;99.70
75430;DHT22;64127;51.488;5.462;2022-10-16T08:36:19;18.00;99.70
75430;DHT22;64127;51.488;5.462;2022-10-16T08:38:52;18.10;99.70
75430;DHT22;64127;51.488;5.462;2022-10-16T08:51:02;18.40;99.20
75430;DHT22;64127;51.488;5.462;2022-10-16T08:56:26;18.50;99.00
75430;DHT22;64127;51.488;5.462;2022-10-16T08:58:59;18.60;99.00
75430;DHT22;64127;51.488;5.462;2022-10-16T09:01:45;18.70;98.90
75430;DHT22;64127;51.488;5.462;2022-10-16T09:07:46;18.80;98.60
75430;DHT22;64127;51.488;5.462;2022-10-16T09:20:20;19.10;98.10
75430;DHT22;64127;51.488;5.462;2022-10-16T09:25:36;19.30;98.10
75430;DHT22;64127;51.488;5.462;2022-10-16T09:28:11;19.30;97.80
75430;DHT22;64127;51.488;5.462;2022-10-16T09:30:44;19.30;97.70
75430;DHT22;64127;51.488;5.462;2022-10-16T09:33:19;19.30;97.60
75430;DHT22;64127;51.488;5.462;2022-10-16T09:35:55;19.30;97.50
75430;DHT22;64127;51.488;5.462;2022-10-16T09:38:35;19.40;97.50
75430;DHT22;64127;51.488;5.462;2022-10-16T09:41:18;19.50;97.20
75430;DHT22;64127;51.488;5.462;2022-10-16T09:43:57;19.50;97.00
75430;DHT22;64127;51.488;5.462;2022-10-16T09:46:33;19.40;96.80
75430;DHT22;64127;51.488;5.462;2022-10-16T09:49:25;19.50;96.80
75430;DHT22;64127;51.488;5.462;2022-10-16T09:52:14;19.50;96.60
75430;DHT22;64127;51.488;5.462;2022-10-16T09:57:24;19.60;96.60
75430;DHT22;64127;51.488;5.462;2022-10-16T09:59:58;19.60;96.40
75430;DHT22;64127;51.488;5.462;2022-10-16T10:02:34;19.60;96.40
75430;DHT22;64127;51.488;5.462;2022-10-16T10:05:29;19.60;96.40
75430;DHT22;64127;51.488;5.462;2022-10-16T10:08:02;19.70;96.50
75430;DHT22;64127;51.488;5.462;2022-10-16T10:10:42;19.70;96.40
75430;DHT22;64127;51.488;5.462;2022-10-16T10:13:21;19.70;96.40
75430;DHT22;64127;51.488;5.462;2022-10-16T10:15:55;19.70;96.40
75430;DHT22;64127;51.488;5.462;2022-10-16T10:18:27;19.80;96.40
75430;DHT22;64127;51.488;5.462;2022-10-16T10:21:00;19.90;96.10
75430;DHT22;64127;51.488;5.462;2022-10-16T10:23:38;19.80;96.00
75430;DHT22;64127;51.488;5.462;2022-10-16T10:26:21;19.80;96.00
75430;DHT22;64127;51.488;5.462;2022-10-16T10:38:07;20.20;95.80
75430;DHT22;64127;51.488;5.462;2022-10-16T10:41:15;20.20;95.60
75430;DHT22;64127;51.488;5.462;2022-10-16T10:44:03;20.30;95.70
75430;DHT22;64127;51.488;5.462;2022-10-16T10:50:14;20.50;95.40
75430;DHT22;64127;51.488;5.462;2022-10-16T10:55:52;20.60;94.60
75430;DHT22;64127;51.488;5.462;2022-10-16T10:58:54;20.60;94.60
75430;DHT22;64127;51.488;5.462;2022-10-16T11:02:19;20.60;94.40
75430;DHT22;64127;51.488;5.462;2022-10-16T11:05:26;20.50;94.10
75430;DHT22;64127;51.488;5.462;2022-10-16T11:08:08;20.50;94.10
75430;DHT22;64127;51.488;5.462;2022-10-16T11:10:58;20.60;94.00
75430;DHT22;64127;51.488;5.462;2022-10-16T11:13:45;20.50;93.80
75430;DHT22;64127;51.488;5.462;2022-10-16T11:16:34;20.50;93.90
75430;DHT22;64127;51.488;5.462;2022-10-16T11:19:30;20.50;93.70
75430;DHT22;64127;51.488;5.462;2022-10-16T11:25:26;20.40;93.20
75430;DHT22;64127;51.488;5.462;2022-10-16T11:31:11;20.40;93.20
75430;DHT22;64127;51.488;5.462;2022-10-16T11:37:09;20.30;92.80
75430;DHT22;64127;51.488;5.462;2022-10-16T11:39:45;20.20;92.80
75430;DHT22;64127;51.488;5.462;2022-10-16T11:42:35;20.10;92.80
75430;DHT22;64127;51.488;5.462;2022-10-16T11:45:38;20.10;92.90
75430;DHT22;64127;51.488;5.462;2022-10-16T11:48:33;20.20;92.90
75430;DHT22;64127;51.488;5.462;2022-10-16T11:51:38;20.40;93.00
75430;DHT22;64127;51.488;5.462;2022-10-16T11:54:32;20.60;92.90
75430;DHT22;64127;51.488;5.462;2022-10-16T11:57:33;20.60;92.40
75430;DHT22;64127;51.488;5.462;2022-10-16T12:00:21;20.70;92.20
75430;DHT22;64127;51.488;5.462;2022-10-16T12:07:02;20.60;92.10
75430;DHT22;64127;51.488;5.462;2022-10-16T12:09:39;20.60;92.10
75430;DHT22;64127;51.488;5.462;2022-10-16T12:15:27;20.70;91.60
75430;DHT22;64127;51.488;5.462;2022-10-16T12:18:25;20.70;91.50
75430;DHT22;64127;51.488;5.462;2022-10-16T12:20:57;20.60;91.40
75430;DHT22;64127;51.488;5.462;2022-10-16T12:23:53;20.70;91.50
75430;DHT22;64127;51.488;5.462;2022-10-16T12:26:38;20.80;91.70
75430;DHT22;64127;51.488;5.462;2022-10-16T12:31:54;21.10;91.80
75430;DHT22;64127;51.488;5.462;2022-10-16T12:34:42;21.30;91.80
75430;DHT22;64127;51.488;5.462;2022-10-16T12:37:23;21.50;91.60
75430;DHT22;64127;51.488;5.462;2022-10-16T12:40:33;21.70;91.10
75430;DHT22;64127;51.488;5.462;2022-10-16T12:46:19;22.00;89.30
75430;DHT22;64127;51.488;5.462;2022-10-16T12:51:47;22.10;90.00
75430;DHT22;64127;51.488;5.462;2022-10-16T12:54:28;22.20;90.00
75430;DHT22;64127;51.488;5.462;2022-10-16T13:00:45;22.60;88.80
75430;DHT22;64127;51.488;5.462;2022-10-16T13:03:34;22.80;89.00
75430;DHT22;64127;51.488;5.462;2022-10-16T13:06:45;23.00;88.90
75430;DHT22;64127;51.488;5.462;2022-10-16T13:09:43;23.20;88.50
75430;DHT22;64127;51.488;5.462;2022-10-16T13:18:33;23.20;87.60
75430;DHT22;64127;51.488;5.462;2022-10-16T13:21:31;23.00;87.70
75430;DHT22;64127;51.488;5.462;2022-10-16T13:30:21;22.60;87.40
75430;DHT22;64127;51.488;5.462;2022-10-16T13:33:04;22.50;87.70
75430;DHT22;64127;51.488;5.462;2022-10-16T13:35:56;22.50;87.70
75430;DHT22;64127;51.488;5.462;2022-10-16T13:38:31;22.50;87.30
75430;DHT22;64127;51.488;5.462;2022-10-16T13:41:16;22.50;87.00
75430;DHT22;64127;51.488;5.462;2022-10-16T13:43:51;22.30;86.40
75430;DHT22;64127;51.488;5.462;2022-10-16T13:46:27;22.20;86.70
75430;DHT22;64127;51.488;5.462;2022-10-16T13:49:10;22.10;86.80
75430;DHT22;64127;51.488;5.462;2022-10-16T13:51:58;22.00;87.00
75430;DHT22;64127;51.488;5.462;2022-10-16T13:54:31;22.00;87.40
75430;DHT22;64127;51.488;5.462;2022-10-16T13:57:06;21.90;87.50
75430;DHT22;64127;51.488;5.462;2022-10-16T13:59:57;21.80;87.30
75430;DHT22;64127;51.488;5.462;2022-10-16T14:02:37;21.70;87.30
75430;DHT22;64127;51.488;5.462;2022-10-16T14:05:14;21.70;87.80
75430;DHT22;64127;51.488;5.462;2022-10-16T14:07:49;21.60;87.70
75430;DHT22;64127;51.488;5.462;2022-10-16T14:10:32;21.50;87.90
75430;DHT22;64127;51.488;5.462;2022-10-16T14:13:06;21.50;88.20
75430;DHT22;64127;51.488;5.462;2022-10-16T14:15:39;21.50;88.20
75430;DHT22;64127;51.488;5.462;2022-10-16T14:18:18;21.40;88.40
75430;DHT22;64127;51.488;5.462;2022-10-16T14:20:53;21.40;88.50
75430;DHT22;64127;51.488;5.462;2022-10-16T14:23:37;21.30;88.60
75430;DHT22;64127;51.488;5.462;2022-10-16T14:28:45;21.30;88.80
75430;DHT22;64127;51.488;5.462;2022-10-16T14:31:33;21.40;88.90
75430;DHT22;64127;51.488;5.462;2022-10-16T14:37:25;21.40;88.90
75430;DHT22;64127;51.488;5.462;2022-10-16T14:40:02;21.40;89.20
75430;DHT22;64127;51.488;5.462;2022-10-16T14:42:35;21.40;89.40
75430;DHT22;64127;51.488;5.462;2022-10-16T14:45:09;21.40;89.60
75430;DHT22;64127;51.488;5.462;2022-10-16T14:47:50;21.50;89.70
75430;DHT22;64127;51.488;5.462;2022-10-16T14:50:25;21.60;90.40
75430;DHT22;64127;51.488;5.462;2022-10-16T14:52:58;21.80;90.00
75430;DHT22;64127;51.488;5.462;2022-10-16T14:55:30;21.80;89.70
75430;DHT22;64127;51.488;5.462;2022-10-16T14:58:02;21.90;89.70
75430;DHT22;64127;51.488;5.462;2022-10-16T15:00:34;21.90;89.80
75430;DHT22;64127;51.488;5.462;2022-10-16T15:03:06;22.10;90.00
75430;DHT22;64127;51.488;5.462;2022-10-16T15:05:38;22.40;90.10
75430;DHT22;64127;51.488;5.462;2022-10-16T15:08:10;22.60;89.70
75430;DHT22;64127;51.488;5.462;2022-10-16T15:10:44;22.70;89.20
75430;DHT22;64127;51.488;5.462;2022-10-16T15:13:16;22.70;88.90
75430;DHT22;64127;51.488;5.462;2022-10-16T15:15:47;22.60;88.50
75430;DHT22;64127;51.488;5.462;2022-10-16T15:18:20;22.50;88.60
75430;DHT22;64127;51.488;5.462;2022-10-16T15:20:53;22.40;88.60
75430;DHT22;64127;51.488;5.462;2022-10-16T15:23:25;22.30;88.60
75430;DHT22;64127;51.488;5.462;2022-10-16T15:26:02;22.20;88.70
75430;DHT22;64127;51.488;5.462;2022-10-16T15:28:34;22.20;88.90
75430;DHT22;64127;51.488;5.462;2022-10-16T15:31:07;22.10;89.00
75430;DHT22;64127;51.488;5.462;2022-10-16T15:33:39;22.00;89.20
75430;DHT22;64127;51.488;5.462;2022-10-16T15:36:11;21.90;89.20
75430;DHT22;64127;51.488;5.462;2022-10-16T15:38:43;21.90;89.30
75430;DHT22;64127;51.488;5.462;2022-10-16T15:41:15;21.80;89.50
75430;DHT22;64127;51.488;5.462;2022-10-16T15:43:50;21.70;89.80
75430;DHT22;64127;51.488;5.462;2022-10-16T15:46:24;21.70;90.00
75430;DHT22;64127;51.488;5.462;2022-10-16T15:48:57;21.70;90.00
75430;DHT22;64127;51.488;5.462;2022-10-16T15:51:30;21.60;90.00
75430;DHT22;64127;51.488;5.462;2022-10-16T15:54:04;21.50;90.10
75430;DHT22;64127;51.488;5.462;2022-10-16T15:56:37;21.50;90.20
75430;DHT22;64127;51.488;5.462;2022-10-16T15:59:09;21.50;90.50
75430;DHT22;64127;51.488;5.462;2022-10-16T16:01:41;21.50;90.60
75430;DHT22;64127;51.488;5.462;2022-10-16T16:04:13;21.50;90.80
75430;DHT22;64127;51.488;5.462;2022-10-16T16:07:05;21.50;90.80
75430;DHT22;64127;51.488;5.462;2022-10-16T16:09:38;21.40;90.80
75430;DHT22;64127;51.488;5.462;2022-10-16T16:12:10;21.40;90.90
75430;DHT22;64127;51.488;5.462;2022-10-16T16:14:42;21.30;90.80
75430;DHT22;64127;51.488;5.462;2022-10-16T16:17:17;21.30;91.00
75430;DHT22;64127;51.488;5.462;2022-10-16T16:19:50;21.30;91.10
75430;DHT22;64127;51.488;5.462;2022-10-16T16:22:22;21.30;91.50
75430;DHT22;64127;51.488;5.462;2022-10-16T16:24:54;21.30;91.20
75430;DHT22;64127;51.488;5.462;2022-10-16T16:27:26;21.20;91.40
75430;DHT22;64127;51.488;5.462;2022-10-16T16:30:02;21.20;91.50
75430;DHT22;64127;51.488;5.462;2022-10-16T16:32:35;21.20;91.60
75430;DHT22;64127;51.488;5.462;2022-10-16T16:35:07;21.10;91.60
75430;DHT22;64127;51.488;5.462;2022-10-16T16:37:39;21.10;92.00
75430;DHT22;64127;51.488;5.462;2022-10-16T16:40:11;21.10;91.90
75430;DHT22;64127;51.488;5.462;2022-10-16T16:42:43;21.10;92.10
75430;DHT22;64127;51.488;5.462;2022-10-16T16:45:15;21.10;92.10
75430;DHT22;64127;51.488;5.462;2022-10-16T16:47:47;21.00;92.50
75430;DHT22;64127;51.488;5.462;2022-10-16T16:50:19;21.00;92.60
75430;DHT22;64127;51.488;5.462;2022-10-16T16:52:51;20.90;92.70
75430;DHT22;64127;51.488;5.462;2022-10-16T16:55:23;20.90;92.70
75430;DHT22;64127;51.488;5.462;2022-10-16T16:57:55;20.90;92.80
75430;DHT22;64127;51.488;5.462;2022-10-16T17:00:28;20.90;92.80
75430;DHT22;64127;51.488;5.462;2022-10-16T17:03:00;20.80;92.80
75430;DHT22;64127;51.488;5.462;2022-10-16T17:05:32;20.90;93.50
75430;DHT22;64127;51.488;5.462;2022-10-16T17:08:07;20.80;93.40
75430;DHT22;64127;51.488;5.462;2022-10-16T17:10:43;20.80;93.40
75430;DHT22;64127;51.488;5.462;2022-10-16T17:13:15;20.80;93.40
75430;DHT22;64127;51.488;5.462;2022-10-16T17:15:49;20.80;93.30
75430;DHT22;64127;51.488;5.462;2022-10-16T17:18:23;20.80;93.30
75430;DHT22;64127;51.488;5.462;2022-10-16T17:20:58;20.80;93.30
75430;DHT22;64127;51.488;5.462;2022-10-16T17:23:32;20.80;93.40
75430;DHT22;64127;51.488;5.462;2022-10-16T17:26:10;20.70;93.40
75430;DHT22;64127;51.488;5.462;2022-10-16T17:28:44;20.70;93.40
75430;DHT22;64127;51.488;5.462;2022-10-16T17:31:19;20.70;93.40
75430;DHT22;64127;51.488;5.462;2022-10-16T17:34:02;20.70;93.40
75430;DHT22;64127;51.488;5.462;2022-10-16T17:36:38;20.60;93.30
75430;DHT22;64127;51.488;5.462;2022-10-16T17:39:15;20.70;93.40
75430;DHT22;64127;51.488;5.462;2022-10-16T17:41:48;20.70;93.40
75430;DHT22;64127;51.488;5.462;2022-10-16T17:44:20;20.60;93.30
75430;DHT22;64127;51.488;5.462;2022-10-16T17:46:53;20.60;93.30
75430;DHT22;64127;51.488;5.462;2022-10-16T17:49:25;20.60;93.30
75430;DHT22;64127;51.488;5.462;2022-10-16T17:51:57;20.60;93.70
75430;DHT22;64127;51.488;5.462;2022-10-16T17:54:32;20.50;94.00
75430;DHT22;64127;51.488;5.462;2022-10-16T17:57:04;20.50;94.00
75430;DHT22;64127;51.488;5.462;2022-10-16T17:59:36;20.40;94.00
75430;DHT22;64127;51.488;5.462;2022-10-16T18:02:11;20.50;93.90
75430;DHT22;64127;51.488;5.462;2022-10-16T18:04:43;20.40;93.80
75430;DHT22;64127;51.488;5.462;2022-10-16T18:07:15;20.50;93.80
75430;DHT22;64127;51.488;5.462;2022-10-16T18:09:47;20.50;93.70
75430;DHT22;64127;51.488;5.462;2022-10-16T18:12:39;20.50;93.70
75430;DHT22;64127;51.488;5.462;2022-10-16T18:15:11;20.50;93.60
75430;DHT22;64127;51.488;5.462;2022-10-16T18:17:43;20.40;93.60